sensor_id;sensor_type;location;lat;lon;timestamp;P1;durP1;ratioP1;P2;durP2;ratioP2
27895;SDS011;15241;48.374;10.876;2022-11-20T00:01:23;3.58;;;2.65;;
27895;SDS011;15241;48.374;10.876;2022-11-20T00:06:23;5.10;;;3.20;;
27895;SDS011;15241;48.374;10.876;2022-11-20T00:11:24;4.28;;;3.47;;
27895;SDS011;15241;48.374;10.876;2022-11-20T00:16:25;5.75;;;3.17;;
27895;SDS011;15241;48.374;10.876;2022-11-20T00:21:27;4.15;;;2.85;;
27895;SDS011;15241;48.374;10.876;2022-11-20T00:26:26;4.33;;;3.30;;
27895;SDS011;15241;48.374;10.876;2022-11-20T00:31:25;4.97;;;2.95;;
27895;SDS011;15241;48.374;10.876;2022-11-20T00:36:26;3.67;;;2.65;;
27895;SDS011;15241;48.374;10.876;2022-11-20T00:41:26;4.58;;;3.02;;
27895;SDS011;15241;48.374;10.876;2022-11-20T00:46:27;5.03;;;2.95;;
27895;SDS011;15241;48.374;10.876;2022-11-20T00:51:26;4.78;;;3.22;;
27895;SDS011;15241;48.374;10.876;2022-11-20T00:56:25;3.70;;;3.30;;
27895;SDS011;15241;48.374;10.876;2022-11-20T01:01:25;3.72;;;3.12;;
27895;SDS011;15241;48.374;10.876;2022-11-20T01:06:25;5.15;;;3.22;;
27895;SDS011;15241;48.374;10.876;2022-11-20T01:11:26;7.53;;;3.12;;
27895;SDS011;15241;48.374;10.876;2022-11-20T01:16:27;4.47;;;3.35;;
27895;SDS011;15241;48.374;10.876;2022-11-20T01:21:28;5.05;;;3.20;;
27895;SDS011;15241;48.374;10.876;2022-11-20T01:26:29;6.78;;;3.40;;
27895;SDS011;15241;48.374;10.876;2022-11-20T01:31:30;4.42;;;3.27;;
27895;SDS011;15241;48.374;10.876;2022-11-20T01:36:38;3.87;;;3.10;;
27895;SDS011;15241;48.374;10.876;2022-11-20T01:41:38;4.22;;;3.00;;
27895;SDS011;15241;48.374;10.876;2022-11-20T01:46:38;3.92;;;3.25;;
27895;SDS011;15241;48.374;10.876;2022-11-20T01:51:39;4.75;;;2.65;;
27895;SDS011;15241;48.374;10.876;2022-11-20T01:56:41;4.12;;;3.27;;
27895;SDS011;15241;48.374;10.876;2022-11-20T02:01:42;4.83;;;3.42;;
27895;SDS011;15241;48.374;10.876;2022-11-20T02:06:42;5.08;;;3.15;;
27895;SDS011;15241;48.374;10.876;2022-11-20T02:11:43;6.40;;;3.40;;
27895;SDS011;15241;48.374;10.876;2022-11-20T02:16:44;6.05;;;3.52;;
27895;SDS011;15241;48.374;10.876;2022-11-20T02:21:46;4.08;;;3.25;;
27895;SDS011;15241;48.374;10.876;2022-11-20T02:26:48;4.05;;;3.30;;
27895;SDS011;15241;48.374;10.876;2022-11-20T02:31:55;7.08;;;3.10;;
27895;SDS011;15241;48.374;10.876;2022-11-20T02:36:57;5.42;;;3.22;;
27895;SDS011;15241;48.374;10.876;2022-11-20T02:41:57;4.08;;;2.95;;
27895;SDS011;15241;48.374;10.876;2022-11-20T02:46:58;3.75;;;2.87;;
27895;SDS011;15241;48.374;10.876;2022-11-20T02:51:57;3.12;;;2.83;;
27895;SDS011;15241;48.374;10.876;2022-11-20T02:56:56;5.03;;;3.10;;
27895;SDS011;15241;48.374;10.876;2022-11-20T03:01:55;4.97;;;3.50;;
27895;SDS011;15241;48.374;10.876;2022-11-20T03:06:54;3.55;;;3.00;;
27895;SDS011;15241;48.374;10.876;2022-11-20T03:11:53;4.78;;;2.90;;
27895;SDS011;15241;48.374;10.876;2022-11-20T03:16:52;4.33;;;3.42;;
27895;SDS011;15241;48.374;10.876;2022-11-20T03:21:50;3.05;;;2.42;;
27895;SDS011;15241;48.374;10.876;2022-11-20T03:26:49;3.42;;;3.00;;
27895;SDS011;15241;48.374;10.876;2022-11-20T03:31:48;9.68;;;2.90;;
27895;SDS011;15241;48.374;10.876;2022-11-20T03:36:47;4.08;;;2.83;;
27895;SDS011;15241;48.374;10.876;2022-11-20T03:41:46;5.37;;;3.20;;
27895;SDS011;15241;48.374;10.876;2022-11-20T03:46:45;4.12;;;3.08;;
27895;SDS011;15241;48.374;10.876;2022-11-20T03:51:45;5.00;;;2.80;;
27895;SDS011;15241;48.374;10.876;2022-11-20T03:56:44;4.42;;;3.10;;
27895;SDS011;15241;48.374;10.876;2022-11-20T04:01:42;5.97;;;2.80;;
27895;SDS011;15241;48.374;10.876;2022-11-20T04:06:41;5.20;;;2.67;;
27895;SDS011;15241;48.374;10.876;2022-11-20T04:11:40;4.37;;;2.90;;
27895;SDS011;15241;48.374;10.876;2022-11-20T04:16:39;3.55;;;2.83;;
27895;SDS011;15241;48.374;10.876;2022-11-20T04:21:39;4.17;;;2.92;;
27895;SDS011;15241;48.374;10.876;2022-11-20T04:26:38;3.85;;;2.75;;
27895;SDS011;15241;48.374;10.876;2022-11-20T04:31:38;5.15;;;3.08;;
27895;SDS011;15241;48.374;10.876;2022-11-20T04:36:37;3.37;;;2.72;;
27895;SDS011;15241;48.374;10.876;2022-11-20T04:41:36;3.95;;;2.80;;
27895;SDS011;15241;48.374;10.876;2022-11-20T04:46:37;3.60;;;2.80;;
27895;SDS011;15241;48.374;10.876;2022-11-20T04:51:37;2.60;;;2.27;;
27895;SDS011;15241;48.374;10.876;2022-11-20T04:56:36;3.35;;;2.80;;
27895;SDS011;15241;48.374;10.876;2022-11-20T05:01:36;4.92;;;2.52;;
27895;SDS011;15241;48.374;10.876;2022-11-20T05:06:43;4.83;;;2.70;;
27895;SDS011;15241;48.374;10.876;2022-11-20T05:11:42;4.12;;;2.42;;
27895;SDS011;15241;48.374;10.876;2022-11-20T05:16:41;2.67;;;2.30;;
27895;SDS011;15241;48.374;10.876;2022-11-20T05:21:40;2.42;;;2.20;;
27895;SDS011;15241;48.374;10.876;2022-11-20T05:26:38;4.22;;;2.75;;
27895;SDS011;15241;48.374;10.876;2022-11-20T05:31:38;4.22;;;2.62;;
27895;SDS011;15241;48.374;10.876;2022-11-20T05:36:37;2.67;;;2.15;;
27895;SDS011;15241;48.374;10.876;2022-11-20T05:41:36;2.42;;;2.15;;
27895;SDS011;15241;48.374;10.876;2022-11-20T05:46:35;2.65;;;2.05;;
27895;SDS011;15241;48.374;10.876;2022-11-20T05:51:34;3.37;;;2.27;;
27895;SDS011;15241;48.374;10.876;2022-11-20T05:56:33;2.55;;;1.92;;
27895;SDS011;15241;48.374;10.876;2022-11-20T06:01:32;3.02;;;1.75;;
27895;SDS011;15241;48.374;10.876;2022-11-20T06:06:31;4.10;;;2.00;;
27895;SDS011;15241;48.374;10.876;2022-11-20T06:11:30;3.70;;;2.80;;
27895;SDS011;15241;48.374;10.876;2022-11-20T06:16:29;3.20;;;2.50;;
27895;SDS011;15241;48.374;10.876;2022-11-20T06:21:28;2.90;;;2.50;;
27895;SDS011;15241;48.374;10.876;2022-11-20T06:26:27;3.12;;;2.45;;
27895;SDS011;15241;48.374;10.876;2022-11-20T06:31:26;3.02;;;2.20;;
27895;SDS011;15241;48.374;10.876;2022-11-20T06:36:25;3.35;;;2.58;;
27895;SDS011;15241;48.374;10.876;2022-11-20T06:41:24;7.65;;;5.33;;
27895;SDS011;15241;48.374;10.876;2022-11-20T06:46:23;3.50;;;2.77;;
27895;SDS011;15241;48.374;10.876;2022-11-20T06:51:21;5.08;;;2.67;;
27895;SDS011;15241;48.374;10.876;2022-11-20T06:56:21;3.80;;;2.55;;
27895;SDS011;15241;48.374;10.876;2022-11-20T07:01:20;5.25;;;2.95;;
27895;SDS011;15241;48.374;10.876;2022-11-20T07:06:19;2.10;;;1.90;;
27895;SDS011;15241;48.374;10.876;2022-11-20T07:11:17;2.83;;;2.33;;
27895;SDS011;15241;48.374;10.876;2022-11-20T07:16:16;4.35;;;2.92;;
27895;SDS011;15241;48.374;10.876;2022-11-20T07:21:15;5.10;;;2.30;;
27895;SDS011;15241;48.374;10.876;2022-11-20T07:26:14;2.95;;;2.27;;
27895;SDS011;15241;48.374;10.876;2022-11-20T07:31:13;2.92;;;2.25;;
27895;SDS011;15241;48.374;10.876;2022-11-20T07:36:12;3.83;;;2.40;;
27895;SDS011;15241;48.374;10.876;2022-11-20T07:41:11;2.42;;;2.22;;
27895;SDS011;15241;48.374;10.876;2022-11-20T07:46:10;2.95;;;2.12;;
27895;SDS011;15241;48.374;10.876;2022-11-20T07:51:10;3.20;;;2.30;;
27895;SDS011;15241;48.374;10.876;2022-11-20T07:56:08;2.22;;;1.98;;
27895;SDS011;15241;48.374;10.876;2022-11-20T08:01:07;3.02;;;2.25;;
27895;SDS011;15241;48.374;10.876;2022-11-20T08:06:07;2.50;;;2.25;;
27895;SDS011;15241;48.374;10.876;2022-11-20T08:11:06;3.20;;;2.33;;
27895;SDS011;15241;48.374;10.876;2022-11-20T08:16:05;4.47;;;2.22;;
27895;SDS011;15241;48.374;10.876;2022-11-20T08:21:12;4.12;;;2.62;;
27895;SDS011;15241;48.374;10.876;2022-11-20T08:26:11;4.65;;;2.60;;
27895;SDS011;15241;48.374;10.876;2022-11-20T08:31:20;5.20;;;2.77;;
27895;SDS011;15241;48.374;10.876;2022-11-20T08:36:19;2.85;;;2.22;;
27895;SDS011;15241;48.374;10.876;2022-11-20T08:41:19;4.03;;;2.95;;
27895;SDS011;15241;48.374;10.876;2022-11-20T08:46:17;4.15;;;2.47;;
27895;SDS011;15241;48.374;10.876;2022-11-20T08:51:17;3.98;;;2.83;;
27895;SDS011;15241;48.374;10.876;2022-11-20T08:56:17;3.75;;;2.45;;
27895;SDS011;15241;48.374;10.876;2022-11-20T09:01:16;5.00;;;2.85;;
27895;SDS011;15241;48.374;10.876;2022-11-20T09:06:15;2.58;;;2.05;;
27895;SDS011;15241;48.374;10.876;2022-11-20T09:11:14;2.52;;;1.98;;
27895;SDS011;15241;48.374;10.876;2022-11-20T09:16:14;2.50;;;2.30;;
27895;SDS011;15241;48.374;10.876;2022-11-20T09:21:13;3.08;;;2.15;;
27895;SDS011;15241;48.374;10.876;2022-11-20T09:26:13;3.77;;;2.27;;
27895;SDS011;15241;48.374;10.876;2022-11-20T09:31:15;7.65;;;2.58;;
27895;SDS011;15241;48.374;10.876;2022-11-20T09:36:24;2.30;;;2.00;;
27895;SDS011;15241;48.374;10.876;2022-11-20T09:41:36;2.17;;;1.70;;
27895;SDS011;15241;48.374;10.876;2022-11-20T09:46:43;3.22;;;2.52;;
27895;SDS011;15241;48.374;10.876;2022-11-20T09:51:51;2.22;;;1.90;;
27895;SDS011;15241;48.374;10.876;2022-11-20T09:56:55;4.10;;;2.00;;
27895;SDS011;15241;48.374;10.876;2022-11-20T10:01:56;3.45;;;2.27;;
27895;SDS011;15241;48.374;10.876;2022-11-20T10:06:56;1.70;;;1.60;;
27895;SDS011;15241;48.374;10.876;2022-11-20T10:17:03;2.25;;;1.70;;
27895;SDS011;15241;48.374;10.876;2022-11-20T10:22:15;3.80;;;1.82;;
27895;SDS011;15241;48.374;10.876;2022-11-20T10:27:39;2.98;;;1.50;;
27895;SDS011;15241;48.374;10.876;2022-11-20T10:32:42;1.62;;;1.40;;
27895;SDS011;15241;48.374;10.876;2022-11-20T10:37:46;1.98;;;1.57;;
27895;SDS011;15241;48.374;10.876;2022-11-20T10:47:46;4.58;;;2.05;;
27895;SDS011;15241;48.374;10.876;2022-11-20T10:52:47;2.33;;;1.52;;
27895;SDS011;15241;48.374;10.876;2022-11-20T10:57:52;1.07;;;0.95;;
27895;SDS011;15241;48.374;10.876;2022-11-20T11:02:53;2.50;;;1.40;;
27895;SDS011;15241;48.374;10.876;2022-11-20T11:07:54;2.67;;;1.50;;
27895;SDS011;15241;48.374;10.876;2022-11-20T11:12:54;2.15;;;1.40;;
27895;SDS011;15241;48.374;10.876;2022-11-20T11:17:53;1.60;;;1.50;;
27895;SDS011;15241;48.374;10.876;2022-11-20T11:22:53;1.67;;;1.32;;
27895;SDS011;15241;48.374;10.876;2022-11-20T11:27:53;2.58;;;1.20;;
27895;SDS011;15241;48.374;10.876;2022-11-20T11:33:03;1.20;;;1.10;;
27895;SDS011;15241;48.374;10.876;2022-11-20T11:38:04;1.22;;;1.12;;
27895;SDS011;15241;48.374;10.876;2022-11-20T11:43:05;2.10;;;1.10;;
27895;SDS011;15241;48.374;10.876;2022-11-20T11:48:07;1.47;;;0.93;;
27895;SDS011;15241;48.374;10.876;2022-11-20T11:53:09;1.22;;;1.07;;
27895;SDS011;15241;48.374;10.876;2022-11-20T11:58:11;1.02;;;0.98;;
27895;SDS011;15241;48.374;10.876;2022-11-20T12:03:18;1.00;;;1.00;;
27895;SDS011;15241;48.374;10.876;2022-11-20T12:08:20;1.47;;;1.15;;
27895;SDS011;15241;48.374;10.876;2022-11-20T12:13:32;1.37;;;1.10;;
27895;SDS011;15241;48.374;10.876;2022-11-20T12:18:43;1.30;;;1.20;;
27895;SDS011;15241;48.374;10.876;2022-11-20T12:23:48;2.55;;;1.92;;
27895;SDS011;15241;48.374;10.876;2022-11-20T12:29:01;1.60;;;1.22;;
27895;SDS011;15241;48.374;10.876;2022-11-20T12:34:13;1.52;;;1.40;;
27895;SDS011;15241;48.374;10.876;2022-11-20T12:39:39;1.72;;;1.20;;
27895;SDS011;15241;48.374;10.876;2022-11-20T12:44:43;1.65;;;1.05;;
27895;SDS011;15241;48.374;10.876;2022-11-20T12:49:52;1.60;;;1.20;;
27895;SDS011;15241;48.374;10.876;2022-11-20T12:55:04;4.00;;;1.70;;
27895;SDS011;15241;48.374;10.876;2022-11-20T13:00:11;2.25;;;1.80;;
27895;SDS011;15241;48.374;10.876;2022-11-20T13:05:17;2.02;;;1.55;;
27895;SDS011;15241;48.374;10.876;2022-11-20T13:10:20;3.08;;;1.45;;
27895;SDS011;15241;48.374;10.876;2022-11-20T13:15:24;1.80;;;1.70;;
27895;SDS011;15241;48.374;10.876;2022-11-20T13:25:35;1.55;;;1.25;;
27895;SDS011;15241;48.374;10.876;2022-11-20T13:30:36;1.87;;;1.40;;
27895;SDS011;15241;48.374;10.876;2022-11-20T13:35:37;2.67;;;1.47;;
27895;SDS011;15241;48.374;10.876;2022-11-20T13:40:39;2.50;;;1.45;;
27895;SDS011;15241;48.374;10.876;2022-11-20T13:45:55;2.72;;;1.72;;
27895;SDS011;15241;48.374;10.876;2022-11-20T13:51:06;1.95;;;1.35;;
27895;SDS011;15241;48.374;10.876;2022-11-20T14:01:34;1.82;;;1.45;;
27895;SDS011;15241;48.374;10.876;2022-11-20T14:06:41;1.90;;;1.27;;
27895;SDS011;15241;48.374;10.876;2022-11-20T14:11:48;1.85;;;1.70;;
27895;SDS011;15241;48.374;10.876;2022-11-20T14:16:47;2.72;;;1.70;;
27895;SDS011;15241;48.374;10.876;2022-11-20T14:21:47;2.30;;;1.52;;
27895;SDS011;15241;48.374;10.876;2022-11-20T14:26:48;3.83;;;1.77;;
27895;SDS011;15241;48.374;10.876;2022-11-20T14:36:56;2.20;;;1.65;;
27895;SDS011;15241;48.374;10.876;2022-11-20T14:41:57;2.58;;;1.20;;
27895;SDS011;15241;48.374;10.876;2022-11-20T14:46:56;4.42;;;2.47;;
27895;SDS011;15241;48.374;10.876;2022-11-20T14:51:59;2.55;;;1.87;;
27895;SDS011;15241;48.374;10.876;2022-11-20T14:56:59;2.70;;;1.70;;
27895;SDS011;15241;48.374;10.876;2022-11-20T15:02:02;3.37;;;1.50;;
27895;SDS011;15241;48.374;10.876;2022-11-20T15:07:02;2.45;;;1.55;;
27895;SDS011;15241;48.374;10.876;2022-11-20T15:12:01;3.17;;;1.37;;
27895;SDS011;15241;48.374;10.876;2022-11-20T15:17:02;2.05;;;1.30;;
27895;SDS011;15241;48.374;10.876;2022-11-20T15:22:01;1.87;;;1.00;;
27895;SDS011;15241;48.374;10.876;2022-11-20T15:27:00;1.92;;;1.00;;
27895;SDS011;15241;48.374;10.876;2022-11-20T15:31:58;1.37;;;0.90;;
27895;SDS011;15241;48.374;10.876;2022-11-20T15:36:57;1.67;;;1.30;;
27895;SDS011;15241;48.374;10.876;2022-11-20T15:41:56;2.33;;;1.20;;
27895;SDS011;15241;48.374;10.876;2022-11-20T15:46:56;2.55;;;0.90;;
27895;SDS011;15241;48.374;10.876;2022-11-20T15:51:56;1.20;;;0.93;;
27895;SDS011;15241;48.374;10.876;2022-11-20T15:56:55;3.55;;;1.20;;
27895;SDS011;15241;48.374;10.876;2022-11-20T16:01:54;1.82;;;1.17;;
27895;SDS011;15241;48.374;10.876;2022-11-20T16:06:53;2.33;;;1.00;;
27895;SDS011;15241;48.374;10.876;2022-11-20T16:11:52;1.85;;;1.12;;
27895;SDS011;15241;48.374;10.876;2022-11-20T16:22:10;1.75;;;1.02;;
27895;SDS011;15241;48.374;10.876;2022-11-20T16:27:09;2.52;;;1.17;;
27895;SDS011;15241;48.374;10.876;2022-11-20T16:32:17;2.08;;;1.30;;
27895;SDS011;15241;48.374;10.876;2022-11-20T16:37:15;2.90;;;1.47;;
27895;SDS011;15241;48.374;10.876;2022-11-20T16:42:14;1.35;;;1.15;;
27895;SDS011;15241;48.374;10.876;2022-11-20T16:47:13;1.52;;;0.90;;
27895;SDS011;15241;48.374;10.876;2022-11-20T16:52:13;1.10;;;0.95;;
27895;SDS011;15241;48.374;10.876;2022-11-20T16:57:12;1.77;;;1.40;;
27895;SDS011;15241;48.374;10.876;2022-11-20T17:02:11;2.00;;;1.55;;
27895;SDS011;15241;48.374;10.876;2022-11-20T17:07:10;3.15;;;1.77;;
27895;SDS011;15241;48.374;10.876;2022-11-20T17:12:08;1.85;;;1.25;;
27895;SDS011;15241;48.374;10.876;2022-11-20T17:17:07;2.17;;;1.40;;
27895;SDS011;15241;48.374;10.876;2022-11-20T17:22:07;2.37;;;1.90;;
27895;SDS011;15241;48.374;10.876;2022-11-20T17:27:06;3.62;;;2.15;;
27895;SDS011;15241;48.374;10.876;2022-11-20T17:32:05;4.28;;;3.05;;
27895;SDS011;15241;48.374;10.876;2022-11-20T17:37:04;6.30;;;3.50;;
27895;SDS011;15241;48.374;10.876;2022-11-20T17:42:03;4.42;;;3.45;;
27895;SDS011;15241;48.374;10.876;2022-11-20T17:47:03;4.90;;;3.02;;
27895;SDS011;15241;48.374;10.876;2022-11-20T17:52:03;9.35;;;5.50;;
27895;SDS011;15241;48.374;10.876;2022-11-20T17:57:02;7.28;;;5.22;;
27895;SDS011;15241;48.374;10.876;2022-11-20T18:02:02;8.30;;;4.53;;
27895;SDS011;15241;48.374;10.876;2022-11-20T18:07:01;6.10;;;4.05;;
27895;SDS011;15241;48.374;10.876;2022-11-20T18:12:00;4.42;;;3.95;;
27895;SDS011;15241;48.374;10.876;2022-11-20T18:16:59;7.00;;;4.20;;
27895;SDS011;15241;48.374;10.876;2022-11-20T18:22:01;7.05;;;4.12;;
27895;SDS011;15241;48.374;10.876;2022-11-20T18:27:01;7.67;;;4.30;;
27895;SDS011;15241;48.374;10.876;2022-11-20T18:32:00;9.00;;;5.37;;
27895;SDS011;15241;48.374;10.876;2022-11-20T18:36:59;7.12;;;3.87;;
27895;SDS011;15241;48.374;10.876;2022-11-20T18:41:58;6.87;;;4.00;;
27895;SDS011;15241;48.374;10.876;2022-11-20T18:46:57;4.35;;;3.12;;
27895;SDS011;15241;48.374;10.876;2022-11-20T18:51:56;5.50;;;2.77;;
27895;SDS011;15241;48.374;10.876;2022-11-20T18:56:55;5.03;;;3.45;;
27895;SDS011;15241;48.374;10.876;2022-11-20T19:01:54;4.25;;;2.80;;
27895;SDS011;15241;48.374;10.876;2022-11-20T19:06:53;4.97;;;2.70;;
27895;SDS011;15241;48.374;10.876;2022-11-20T19:11:51;6.55;;;3.67;;
27895;SDS011;15241;48.374;10.876;2022-11-20T19:16:50;6.50;;;3.10;;
27895;SDS011;15241;48.374;10.876;2022-11-20T19:21:50;3.55;;;2.80;;
27895;SDS011;15241;48.374;10.876;2022-11-20T19:26:50;10.10;;;4.08;;
27895;SDS011;15241;48.374;10.876;2022-11-20T19:31:49;9.10;;;4.60;;
27895;SDS011;15241;48.374;10.876;2022-11-20T19:36:48;7.55;;;4.85;;
27895;SDS011;15241;48.374;10.876;2022-11-20T19:41:48;8.43;;;5.17;;
27895;SDS011;15241;48.374;10.876;2022-11-20T19:46:47;6.45;;;4.30;;
27895;SDS011;15241;48.374;10.876;2022-11-20T19:51:47;4.55;;;3.42;;
27895;SDS011;15241;48.374;10.876;2022-11-20T19:56:46;4.92;;;3.37;;
27895;SDS011;15241;48.374;10.876;2022-11-20T20:01:45;7.22;;;4.58;;
27895;SDS011;15241;48.374;10.876;2022-11-20T20:06:44;8.75;;;3.80;;
27895;SDS011;15241;48.374;10.876;2022-11-20T20:11:44;6.83;;;4.45;;
27895;SDS011;15241;48.374;10.876;2022-11-20T20:16:43;6.05;;;3.83;;
27895;SDS011;15241;48.374;10.876;2022-11-20T20:21:42;5.42;;;3.75;;
27895;SDS011;15241;48.374;10.876;2022-11-20T20:26:52;6.17;;;4.12;;
27895;SDS011;15241;48.374;10.876;2022-11-20T20:31:51;5.35;;;3.55;;
27895;SDS011;15241;48.374;10.876;2022-11-20T20:36:50;6.37;;;3.60;;
27895;SDS011;15241;48.374;10.876;2022-11-20T20:41:49;6.78;;;4.10;;
27895;SDS011;15241;48.374;10.876;2022-11-20T20:46:48;7.05;;;3.95;;
27895;SDS011;15241;48.374;10.876;2022-11-20T20:51:49;6.08;;;3.50;;
27895;SDS011;15241;48.374;10.876;2022-11-20T20:56:48;5.12;;;3.50;;
27895;SDS011;15241;48.374;10.876;2022-11-20T21:01:48;6.87;;;3.05;;
27895;SDS011;15241;48.374;10.876;2022-11-20T21:06:47;5.58;;;3.17;;
27895;SDS011;15241;48.374;10.876;2022-11-20T21:11:46;2.90;;;2.45;;
27895;SDS011;15241;48.374;10.876;2022-11-20T21:16:44;3.37;;;2.35;;
27895;SDS011;15241;48.374;10.876;2022-11-20T21:21:43;4.03;;;2.37;;
27895;SDS011;15241;48.374;10.876;2022-11-20T21:26:51;2.12;;;1.70;;
27895;SDS011;15241;48.374;10.876;2022-11-20T21:31:50;3.33;;;2.10;;
27895;SDS011;15241;48.374;10.876;2022-11-20T21:36:49;3.10;;;2.42;;
27895;SDS011;15241;48.374;10.876;2022-11-20T21:46:54;1.87;;;1.77;;
27895;SDS011;15241;48.374;10.876;2022-11-20T21:51:53;2.30;;;2.05;;
27895;SDS011;15241;48.374;10.876;2022-11-20T21:56:52;1.95;;;1.72;;
27895;SDS011;15241;48.374;10.876;2022-11-20T22:01:51;2.42;;;2.05;;
27895;SDS011;15241;48.374;10.876;2022-11-20T22:06:50;2.00;;;1.80;;
27895;SDS011;15241;48.374;10.876;2022-11-20T22:11:49;3.60;;;1.80;;
27895;SDS011;15241;48.374;10.876;2022-11-20T22:16:48;3.45;;;2.27;;
27895;SDS011;15241;48.374;10.876;2022-11-20T22:21:48;2.33;;;1.32;;
27895;SDS011;15241;48.374;10.876;2022-11-20T22:26:48;1.55;;;1.42;;
27895;SDS011;15241;48.374;10.876;2022-11-20T22:31:55;1.27;;;1.02;;
27895;SDS011;15241;48.374;10.876;2022-11-20T22:36:54;0.80;;;0.80;;
27895;SDS011;15241;48.374;10.876;2022-11-20T22:41:53;0.82;;;0.82;;
27895;SDS011;15241;48.374;10.876;2022-11-20T22:46:52;0.70;;;0.55;;
27895;SDS011;15241;48.374;10.876;2022-11-20T22:51:51;0.60;;;0.60;;
27895;SDS011;15241;48.374;10.876;2022-11-20T22:56:50;1.27;;;1.00;;
27895;SDS011;15241;48.374;10.876;2022-11-20T23:01:49;1.00;;;0.90;;
27895;SDS011;15241;48.374;10.876;2022-11-20T23:06:47;1.10;;;1.00;;
27895;SDS011;15241;48.374;10.876;2022-11-20T23:11:46;1.55;;;0.93;;
27895;SDS011;15241;48.374;10.876;2022-11-20T23:16:45;1.40;;;1.30;;
27895;SDS011;15241;48.374;10.876;2022-11-20T23:21:44;1.25;;;1.02;;
27895;SDS011;15241;48.374;10.876;2022-11-20T23:26:43;1.27;;;1.10;;
27895;SDS011;15241;48.374;10.876;2022-11-20T23:31:42;1.10;;;1.00;;
27895;SDS011;15241;48.374;10.876;2022-11-20T23:36:41;1.65;;;1.15;;
27895;SDS011;15241;48.374;10.876;2022-11-20T23:41:39;1.02;;;1.00;;
27895;SDS011;15241;48.374;10.876;2022-11-20T23:46:38;1.35;;;1.05;;
27895;SDS011;15241;48.374;10.876;2022-11-20T23:51:37;1.00;;;0.90;;
27895;SDS011;15241;48.374;10.876;2022-11-20T23:56:36;0.75;;;0.72;;
